Time;durP1;ratioP1;P1;durP2;ratioP2;P2;SDS_P1;SDS_P2;PMS_P1;PMS_P2;Temp;Humidity;BMP_temperature;BMP_pressure;BME280_temperature;BME280_humidity;BME280_pressure;Samples;Min_cycle;Max_cycle;Signal;HPM_P1;HPM_P2
2020/12/15 00:01:23;;;;;;;2.67;1.05;;;10.60;99.90;;;11.08;59.70;99871.47;5012630;28;20034;-80
2020/12/15 00:03:50;;;;;;;1.45;1.27;;;10.60;99.90;;;11.17;59.29;99868.41;5012833;28;20041;-80
2020/12/15 00:06:17;;;;;;;1.98;1.33;;;10.50;99.90;;;11.04;60.21;99881.84;5012515;28;20018;-82
2020/12/15 00:08:47;;;;;;;1.85;1.20;;;10.50;99.90;;;11.16;59.49;99878.78;4989525;28;20026;-81
2020/12/15 00:11:19;;;;;;;1.70;1.20;;;10.60;99.90;;;11.10;60.22;99883.09;5013345;28;20034;-82
2020/12/15 00:13:45;;;;;;;3.20;1.42;;;10.60;99.90;;;11.06;61.76;99879.44;5014762;28;20033;-82
2020/12/15 00:16:18;;;;;;;2.85;1.20;;;10.50;99.90;;;10.96;61.55;99874.53;5012502;28;20216;-79
2020/12/15 00:18:44;;;;;;;2.53;1.42;;;10.40;99.90;;;10.88;61.88;99875.63;5014252;28;20030;-81
2020/12/15 00:21:18;;;;;;;2.10;1.58;;;10.40;99.90;;;10.90;62.11;99862.88;5014154;28;20053;-79
2020/12/15 00:23:45;;;;;;;2.40;1.67;;;10.30;99.90;;;10.80;62.40;99859.94;4997106;28;20030;-81
2020/12/15 00:26:12;;;;;;;2.13;1.50;;;10.30;99.90;;;10.85;61.87;99860.41;5008062;28;20030;-81
2020/12/15 00:28:39;;;;;;;1.60;1.23;;;10.20;99.90;;;10.73;62.54;99860.66;5006192;28;20022;-83
2020/12/15 00:31:05;;;;;;;1.98;1.38;;;10.20;99.90;;;10.76;62.56;99856.28;5008453;28;20033;-82
2020/12/15 00:33:31;;;;;;;2.17;1.40;;;10.30;99.90;;;10.82;62.55;99847.19;4996830;28;20546;-82
2020/12/15 00:35:57;;;;;;;1.60;1.30;;;10.20;99.90;;;10.85;62.21;99860.41;5013117;28;20113;-80
2020/12/15 00:38:22;;;;;;;2.35;1.13;;;10.20;99.90;;;10.87;61.51;99866.44;4997637;28;20034;-82
2020/12/15 00:40:49;;;;;;;1.42;1.15;;;10.20;99.90;;;10.94;62.05;99860.94;5013957;28;20046;-81
2020/12/15 00:43:14;;;;;;;1.67;1.30;;;10.20;99.90;;;10.87;60.62;99858.06;5014556;28;20092;-80
2020/12/15 00:45:40;;;;;;;2.20;1.40;;;10.30;99.90;;;10.92;61.19;99859.69;4993163;28;20034;-82
2020/12/15 00:48:06;;;;;;;2.58;1.50;;;10.20;99.90;;;10.99;60.96;99859.78;5007982;28;20038;-80
2020/12/15 00:50:32;;;;;;;1.83;1.10;;;10.30;99.90;;;10.96;61.00;99855.78;5008265;28;20397;-81
2020/12/15 00:52:58;;;;;;;1.75;1.08;;;10.30;99.90;;;10.93;60.39;99856.53;5008731;28;20425;-80
2020/12/15 00:55:24;;;;;;;2.67;1.40;;;10.30;99.90;;;10.97;60.41;99859.38;5012164;28;20049;-80
2020/12/15 00:57:50;;;;;;;3.50;1.27;;;10.30;99.90;;;11.00;61.35;99861.41;5004765;28;20443;-82
2020/12/15 01:00:16;;;;;;;2.55;1.10;;;10.20;99.90;;;10.86;62.23;99856.44;5001683;28;20069;-81
2020/12/15 01:02:42;;;;;;;2.40;1.65;;;10.20;99.90;;;10.84;63.34;99860.81;5000515;28;20038;-80
2020/12/15 01:05:08;;;;;;;6.47;1.48;;;10.10;99.90;;;10.79;62.94;99864.72;4999922;28;20390;-82
2020/12/15 01:07:34;;;;;;;1.77;1.08;;;10.10;99.90;;;10.82;63.16;99863.19;5002336;28;20038;-82
2020/12/15 01:09:59;;;;;;;2.30;1.52;;;10.10;99.90;;;10.81;63.02;99858.78;5000843;28;20490;-81
2020/12/15 01:12:25;;;;;;;2.55;1.40;;;10.10;99.90;;;10.79;63.07;99863.94;5001652;28;20111;-81
2020/12/15 01:14:51;;;;;;;2.38;1.40;;;10.10;99.90;;;10.79;64.35;99861.16;5001045;28;20030;-81
2020/12/15 01:17:17;;;;;;;2.88;1.48;;;10.20;99.90;;;10.61;64.80;99854.50;5001581;28;20026;-81
2020/12/15 01:19:43;;;;;;;3.53;1.55;;;10.10;99.90;;;10.58;65.62;99864.44;5002140;28;20034;-81
2020/12/15 01:22:09;;;;;;;2.90;1.42;;;10.00;99.90;;;10.51;66.22;99869.91;5000975;28;20034;-81
2020/12/15 01:24:35;;;;;;;2.78;1.30;;;10.00;99.90;;;10.55;66.34;99873.56;5002818;28;20081;-81
2020/12/15 01:27:01;;;;;;;2.97;1.38;;;9.90;99.90;;;10.43;67.61;99865.41;5002697;28;20034;-81
2020/12/15 01:29:27;;;;;;;2.88;1.40;;;9.80;99.90;;;10.33;67.81;99866.06;5002622;28;20517;-81
2020/12/15 01:31:53;;;;;;;2.78;1.48;;;9.70;99.90;;;10.21;69.15;99861.47;5003021;28;20032;-83
2020/12/15 01:34:19;;;;;;;2.10;1.27;;;9.70;99.90;;;10.26;69.80;99868.72;5002122;28;20053;-82
2020/12/15 01:36:46;;;;;;;2.78;1.33;;;9.60;99.90;;;10.24;71.14;99860.72;5003220;28;20026;-81
2020/12/15 01:39:12;;;;;;;2.95;1.40;;;9.50;99.90;;;10.10;71.61;99866.06;5003812;28;20045;-81
2020/12/15 01:41:38;;;;;;;3.58;1.52;;;9.50;99.90;;;10.05;72.88;99864.38;4986539;28;20030;-81
2020/12/15 01:44:05;;;;;;;2.13;1.40;;;9.40;99.90;;;10.04;73.29;99870.34;5003176;28;20041;-80
2020/12/15 01:46:32;;;;;;;3.45;1.95;;;9.40;99.90;;;10.03;73.27;99860.34;5006161;28;20061;-82
2020/12/15 01:48:59;;;;;;;2.00;1.30;;;9.40;99.90;;;9.97;74.59;99873.81;5008884;28;20058;-80
2020/12/15 01:51:29;;;;;;;2.67;1.23;;;9.30;99.90;;;9.89;75.08;99860.09;5032500;23;20126;-81
2020/12/15 01:54:01;;;;;;;2.05;1.52;;;9.30;99.90;;;9.92;75.98;99851.78;4976696;28;20061;-82
2020/12/15 01:56:29;;;;;;;4.47;1.98;;;9.30;99.90;;;9.84;76.30;99838.94;4977578;28;20037;-81
2020/12/15 01:59:01;;;;;;;7.63;1.90;;;9.20;99.90;;;9.76;77.95;99856.69;4978488;28;20031;-83
2020/12/15 02:01:27;;;;;;;4.57;1.60;;;9.20;99.90;;;9.67;79.04;99849.75;4978855;28;20053;-82
2020/12/15 02:03:54;;;;;;;1.40;1.30;;;9.10;99.90;;;9.58;79.63;99852.78;4962318;28;20034;-81
2020/12/15 02:06:23;;;;;;;3.25;1.70;;;9.00;99.90;;;9.53;79.88;99861.47;4989440;28;20054;-81
2020/12/15 02:08:53;;;;;;;4.15;1.85;;;9.00;99.90;;;9.53;80.34;99861.47;4996908;28;20027;-79
2020/12/15 02:11:19;;;;;;;4.20;1.90;;;9.00;99.90;;;9.68;79.88;99860.56;4991199;28;20101;-79
2020/12/15 02:13:46;;;;;;;2.50;1.92;;;9.00;99.90;;;9.63;79.82;99860.06;4961856;28;20030;-82
2020/12/15 02:16:12;;;;;;;2.70;1.33;;;9.00;99.90;;;9.70;79.93;99855.41;4979190;28;20046;-79
2020/12/15 02:18:40;;;;;;;3.83;2.13;;;9.00;99.90;;;9.64;80.95;99853.28;4988972;28;20030;-80
2020/12/15 02:21:08;;;;;;;2.85;1.90;;;9.00;99.90;;;9.61;81.52;99863.22;4997930;28;20079;-79
2020/12/15 02:23:35;;;;;;;3.75;1.70;;;9.00;99.90;;;9.60;81.94;99861.59;4997538;28;20030;-83
2020/12/15 02:26:05;;;;;;;3.88;1.90;;;9.00;99.90;;;9.44;83.11;99863.69;4995760;28;20026;-80
2020/12/15 02:28:52;;;;;;;4.20;2.20;;;8.90;99.90;;;9.49;82.94;99867.00;4980168;28;20026;-81
2020/12/15 02:31:17;;;;;;;3.65;1.90;;;8.90;99.90;;;9.54;82.78;99865.84;4998516;28;20078;-82
2020/12/15 02:33:43;;;;;;;2.80;2.05;;;8.80;99.90;;;9.49;83.50;99871.75;4998346;28;20118;-80
2020/12/15 02:36:09;;;;;;;2.85;1.83;;;8.80;99.90;;;9.42;83.79;99858.47;4999390;28;20090;-82
2020/12/15 02:38:35;;;;;;;6.03;2.10;;;8.80;99.90;;;9.39;83.86;99853.66;4998050;28;20569;-81
2020/12/15 02:41:01;;;;;;;3.42;1.90;;;8.80;99.90;;;9.42;84.54;99847.34;4998493;28;20135;-79
2020/12/15 02:43:27;;;;;;;2.95;1.70;;;8.80;99.90;;;9.36;84.83;99845.22;4980713;28;20054;-81
2020/12/15 02:45:53;;;;;;;3.38;1.70;;;8.80;99.90;;;9.37;85.14;99842.06;4982925;28;20096;-80
2020/12/15 02:48:23;;;;;;;3.78;2.20;;;8.80;99.90;;;9.42;85.42;99847.34;4998642;28;20030;-81
2020/12/15 02:50:49;;;;;;;5.25;2.15;;;8.70;99.90;;;9.41;85.43;99839.34;5018306;28;20053;-80
2020/12/15 02:53:24;;;;;;;3.25;1.77;;;8.70;99.90;;;9.43;85.59;99850.94;5016064;28;20043;-79
2020/12/15 02:55:50;;;;;;;2.53;1.97;;;8.80;99.90;;;9.42;86.08;99852.09;4996695;28;20496;-81
2020/12/15 02:58:16;;;;;;;4.63;2.10;;;8.80;99.90;;;9.43;86.23;99854.53;4996354;28;20093;-82
2020/12/15 03:00:42;;;;;;;3.88;2.05;;;8.80;99.90;;;9.45;86.31;99857.75;4996798;28;20301;-80
2020/12/15 03:03:07;;;;;;;2.90;2.05;;;8.80;99.90;;;9.46;86.18;99847.41;4995617;28;20026;-81
2020/12/15 03:05:34;;;;;;;3.22;2.08;;;8.80;99.90;;;9.45;86.60;99848.56;4980566;28;20363;-79
2020/12/15 03:08:01;;;;;;;4.32;2.53;;;8.80;99.90;;;9.42;86.74;99850.13;4979851;28;20049;-83
2020/12/15 03:10:27;;;;;;;3.47;2.20;;;8.80;99.90;;;9.50;86.52;99857.44;4995138;28;20371;-81
2020/12/15 03:12:53;;;;;;;4.90;2.08;;;8.70;99.90;;;9.46;86.53;99856.56;4996876;28;20027;-83
2020/12/15 03:15:19;;;;;;;3.90;2.30;;;8.80;99.90;;;9.45;86.32;99857.75;4978876;28;20030;-79
2020/12/15 03:17:45;;;;;;;4.35;2.40;;;8.80;99.90;;;9.45;86.55;99851.34;4978803;28;20402;-84
2020/12/15 03:20:10;;;;;;;4.13;2.30;;;8.80;99.90;;;9.51;85.91;99861.84;4979083;28;20057;-82
2020/12/15 03:22:36;;;;;;;3.47;2.40;;;8.80;99.90;;;9.53;85.46;99878.22;4979297;28;20022;-82
2020/12/15 03:25:04;;;;;;;4.45;2.05;;;8.70;99.90;;;9.62;85.26;99880.75;4978160;28;20442;-82
2020/12/15 03:27:30;;;;;;;3.67;2.30;;;8.70;99.90;;;9.63;85.58;99880.38;4996458;28;20501;-82
2020/12/15 03:29:56;;;;;;;5.07;2.47;;;8.70;99.90;;;9.56;85.38;99885.81;4978344;28;20038;-82
2020/12/15 03:32:22;;;;;;;4.00;2.20;;;8.70;99.90;;;9.51;85.94;99888.91;4998191;28;20038;-79
2020/12/15 03:34:49;;;;;;;4.55;2.40;;;8.70;99.90;;;9.47;85.98;99890.84;4980964;28;20037;-80
2020/12/15 03:37:20;;;;;;;5.43;3.08;;;8.70;99.90;;;9.44;86.38;99889.56;4980241;28;20030;-80
2020/12/15 03:39:46;;;;;;;4.75;2.58;;;8.70;99.90;;;9.47;86.54;99883.25;4979100;28;20125;-78
2020/12/15 03:42:12;;;;;;;3.70;2.45;;;8.70;99.90;;;9.40;86.87;99885.13;4978805;28;20060;-81
2020/12/15 03:44:39;;;;;;;3.72;2.53;;;8.60;99.90;;;9.25;88.01;99883.19;4978576;28;20026;-81
2020/12/15 03:47:05;;;;;;;4.32;3.03;;;8.60;99.90;;;9.24;88.18;99878.81;4995873;28;20041;-82
2020/12/15 03:49:31;;;;;;;5.22;2.95;;;8.50;99.90;;;9.17;88.89;99870.31;4979643;28;20034;-82
2020/12/15 03:51:57;;;;;;;5.93;2.75;;;8.50;99.90;;;9.07;88.92;99868.13;4997386;28;20105;-80
2020/12/15 03:54:24;;;;;;;4.68;2.90;;;8.50;99.90;;;9.11;88.84;99869.81;4979715;28;20030;-81
2020/12/15 03:56:50;;;;;;;6.63;2.95;;;8.50;99.90;;;9.11;88.92;99877.38;4980243;28;20227;-81
2020/12/15 03:59:17;;;;;;;5.53;2.97;;;8.40;99.90;;;9.14;89.00;99880.22;4998464;28;20086;-82
2020/12/15 04:01:44;;;;;;;5.30;2.95;;;8.40;99.90;;;9.09;89.21;99874.94;4997159;28;20026;-81
2020/12/15 04:04:10;;;;;;;4.18;2.97;;;8.40;99.90;;;9.11;89.05;99871.78;4996566;28;20105;-81
2020/12/15 04:06:35;;;;;;;5.82;3.65;;;8.50;99.90;;;9.12;89.16;99873.41;4995549;28;20545;-82
2020/12/15 04:09:02;;;;;;;6.55;3.28;;;8.40;99.90;;;9.19;88.80;99867.97;4997256;28;20370;-80
2020/12/15 04:11:28;;;;;;;5.50;3.28;;;8.40;99.90;;;9.07;89.27;99871.72;4995794;28;20034;-81
2020/12/15 04:13:53;;;;;;;4.78;3.22;;;8.40;99.90;;;9.09;89.24;99868.53;4980049;28;20041;-83
2020/12/15 04:16:19;;;;;;;6.25;3.25;;;8.40;99.90;;;9.07;89.59;99868.94;4979708;28;20034;-82
2020/12/15 04:18:46;;;;;;;6.63;2.80;;;8.40;99.90;;;9.09;89.35;99865.75;4980383;28;20061;-84
2020/12/15 04:21:11;;;;;;;4.82;3.05;;;8.30;99.90;;;9.07;89.19;99855.00;4980880;28;20394;-81
2020/12/15 04:23:38;;;;;;;7.43;3.38;;;8.30;99.90;;;9.06;89.76;99870.09;4980620;28;20030;-84
2020/12/15 04:26:04;;;;;;;5.65;3.15;;;8.30;99.90;;;8.97;89.95;99873.09;4998954;28;20027;-84
2020/12/15 04:28:31;;;;;;;5.93;3.15;;;8.30;99.90;;;9.01;89.27;99867.63;4988491;28;20054;-84
2020/12/15 04:30:57;;;;;;;5.47;2.65;;;8.30;99.90;;;9.12;88.68;99873.41;5009497;28;20029;-80
2020/12/15 04:33:23;;;;;;;4.28;3.13;;;8.30;99.90;;;9.12;89.12;99870.63;4978528;28;20490;-78
2020/12/15 04:35:49;;;;;;;7.88;3.47;;;8.30;99.90;;;9.07;88.81;99870.91;4995838;28;20049;-80
2020/12/15 04:38:15;;;;;;;6.05;3.55;;;8.30;99.90;;;9.10;88.55;99870.16;4978090;28;20042;-81
2020/12/15 04:40:41;;;;;;;6.88;3.47;;;8.30;99.90;;;9.07;88.53;99873.69;4996452;28;20544;-79
2020/12/15 04:43:11;;;;;;;4.53;3.38;;;8.30;99.90;;;9.06;88.92;99877.63;4997651;28;20027;-80
2020/12/15 04:45:37;;;;;;;5.45;3.63;;;8.20;99.90;;;9.07;88.55;99876.47;4995299;28;20026;-79
2020/12/15 04:48:08;;;;;;;8.75;3.88;;;8.20;99.90;;;9.11;88.18;99872.59;4996221;28;20101;-79
2020/12/15 04:50:38;;;;;;;6.05;3.95;;;8.20;99.90;;;9.13;88.23;99872.22;4994993;28;20084;-81
2020/12/15 04:53:12;;;;;;;6.57;3.47;;;8.30;99.90;;;9.06;88.53;99874.84;4994227;28;20045;-82
2020/12/15 04:55:40;;;;;;;6.97;3.95;;;8.30;99.90;;;9.10;88.09;99882.13;4978373;28;20033;-81
2020/12/15 04:58:07;;;;;;;8.93;4.13;;;8.30;99.90;;;9.11;88.25;99886.53;4994878;28;20478;-80
2020/12/15 05:00:36;;;;;;;6.68;3.95;;;8.30;99.90;;;9.20;87.17;99883.50;4996777;28;20073;-81
2020/12/15 05:03:04;;;;;;;10.25;3.63;;;8.40;99.90;;;9.22;86.77;99883.94;4995858;28;20044;-81
2020/12/15 05:05:31;;;;;;;6.57;3.55;;;8.50;99.90;;;9.35;86.41;99883.44;4995399;28;20057;-79
2020/12/15 05:08:03;;;;;;;4.55;3.47;;;8.50;99.90;;;9.34;86.21;99878.22;4979118;28;20434;-80
2020/12/15 05:10:30;;;;;;;6.38;3.97;;;8.50;99.90;;;9.39;86.23;99889.06;4995315;28;20033;-80
2020/12/15 05:12:56;;;;;;;7.25;3.75;;;8.50;99.90;;;9.33;86.24;99884.97;4979702;28;20142;-81
2020/12/15 05:15:22;;;;;;;8.38;4.40;;;8.50;99.90;;;9.35;86.47;99883.44;4978103;28;20092;-81
2020/12/15 05:17:50;;;;;;;5.68;3.90;;;8.40;99.90;;;9.39;85.77;99881.53;4979246;28;20101;-80
2020/12/15 05:20:27;;;;;;;7.50;3.88;;;8.50;99.90;;;9.30;86.32;99882.94;4979269;28;20030;-82
2020/12/15 05:22:53;;;;;;;5.60;3.75;;;8.50;99.90;;;9.37;86.38;99891.44;4981664;28;20026;-81
2020/12/15 05:25:35;;;;;;;6.70;4.03;;;8.60;99.90;;;9.26;86.19;99894.00;4983406;28;20034;-81
2020/12/15 05:28:11;;;;;;;5.90;3.72;;;8.60;99.90;;;9.40;85.88;99891.50;5002353;28;20113;-79
2020/12/15 05:30:37;;;;;;;5.60;3.95;;;8.60;99.90;;;9.41;85.67;99892.28;4999512;28;20034;-80
2020/12/15 05:33:15;;;;;;;7.00;3.83;;;8.60;99.90;;;9.50;85.79;99898.47;4983581;28;20449;-80
2020/12/15 05:35:47;;;;;;;5.30;3.55;;;8.60;99.90;;;9.52;85.15;99891.34;5000649;28;20030;-81
2020/12/15 05:38:14;;;;;;;7.05;4.47;;;8.70;99.90;;;9.36;85.83;99898.16;4998927;28;20034;-81
2020/12/15 05:40:39;;;;;;;5.60;3.72;;;8.70;99.90;;;9.39;86.18;99889.06;4998678;28;20117;-80
2020/12/15 05:43:06;;;;;;;6.93;4.20;;;8.60;99.90;;;9.41;85.85;99893.09;4983293;28;20018;-81
2020/12/15 05:45:34;;;;;;;6.50;3.70;;;8.60;99.90;;;9.37;86.22;99897.00;4983287;28;20520;-82
2020/12/15 05:48:08;;;;;;;6.68;3.83;;;8.60;99.90;;;9.42;86.46;99899.47;5000703;28;20099;-81
2020/12/15 05:50:38;;;;;;;9.02;4.28;;;8.60;99.90;;;9.46;86.23;99901.19;5000984;28;20023;-81
2020/12/15 05:53:11;;;;;;;7.60;3.78;;;8.60;99.90;;;9.41;86.39;99889.50;5001563;28;20066;-80
2020/12/15 05:55:39;;;;;;;9.15;4.20;;;8.60;99.90;;;9.37;86.56;99897.00;4983777;28;20046;-82
2020/12/15 05:58:06;;;;;;;8.55;4.22;;;8.60;99.90;;;9.37;86.68;99883.06;4982753;28;20026;-82
2020/12/15 06:00:33;;;;;;;5.82;3.65;;;8.60;99.90;;;9.42;86.65;99893.91;5000122;28;20065;-82
2020/12/15 06:03:07;;;;;;;5.82;4.40;;;8.60;99.90;;;9.38;87.00;99888.25;4997672;28;20488;-82
2020/12/15 06:05:37;;;;;;;6.40;3.75;;;8.60;99.90;;;9.38;86.88;99882.69;4997216;28;20026;-81
2020/12/15 06:08:07;;;;;;;7.00;4.15;;;8.60;99.90;;;9.49;86.68;99888.47;4995284;28;20030;-82
2020/12/15 06:10:35;;;;;;;7.47;4.75;;;8.70;99.90;;;9.48;86.78;99893.25;4996599;28;20418;-82
2020/12/15 06:13:03;;;;;;;6.03;4.20;;;8.70;99.90;;;9.54;86.58;99883.41;4997514;28;20540;-82
2020/12/15 06:15:30;;;;;;;6.82;4.55;;;8.70;99.90;;;9.48;86.74;99893.25;4997108;28;20344;-82
2020/12/15 06:18:01;;;;;;;7.03;3.75;;;8.70;99.90;;;9.44;87.02;99891.53;4995072;28;20037;-81
2020/12/15 06:20:37;;;;;;;9.57;4.20;;;8.80;99.90;;;9.47;87.08;99885.25;4995113;28;20037;-82
2020/12/15 06:23:11;;;;;;;7.65;3.90;;;8.70;99.90;;;9.52;87.00;99888.53;4996909;28;20026;-83
2020/12/15 06:25:38;;;;;;;6.97;3.60;;;8.70;99.90;;;9.53;87.02;99894.94;4996047;28;20030;-82
2020/12/15 06:28:12;;;;;;;6.07;4.30;;;8.70;99.90;;;9.49;86.95;99894.06;4995834;28;20112;-82
2020/12/15 06:30:44;;;;;;;6.68;4.43;;;8.80;99.90;;;9.56;86.47;99894.19;4996959;28;20034;-83
2020/12/15 06:33:14;;;;;;;7.07;3.90;;;8.80;99.90;;;9.53;86.64;99892.91;4980692;28;20041;-81
2020/12/15 06:35:45;;;;;;;5.40;4.07;;;8.80;99.90;;;9.47;87.16;99891.63;4979372;28;20030;-82
2020/12/15 06:38:21;;;;;;;5.75;4.32;;;8.90;99.90;;;9.46;87.51;99884.44;4997273;28;20027;-85
2020/12/15 06:40:50;;;;;;;5.20;3.30;;;8.80;99.90;;;9.50;87.29;99890.88;4996789;28;20073;-82
2020/12/15 06:43:30;;;;;;;5.47;4.20;;;8.80;99.90;;;9.52;87.02;99893.31;4997865;28;20480;-82
2020/12/15 06:46:08;;;;;;;8.00;4.90;;;8.80;99.90;;;9.52;87.15;99888.53;4999082;28;20037;-84
2020/12/15 06:48:52;;;;;;;8.45;4.95;;;8.80;99.90;;;9.51;87.66;99900.06;4996563;28;20038;-83
2020/12/15 06:51:32;;;;;;;8.00;4.38;;;8.80;99.90;;;9.56;87.81;99891.41;5001175;28;20462;-80
2020/12/15 06:54:05;;;;;;;6.13;4.18;;;8.80;99.90;;;9.60;87.67;99894.25;4994925;28;20038;-82
2020/12/15 06:56:32;;;;;;;7.57;4.55;;;8.80;99.90;;;9.59;87.32;99893.44;4995413;28;20026;-80
2020/12/15 06:59:06;;;;;;;6.65;4.65;;;8.80;99.90;;;9.67;87.36;99897.97;4995268;28;20129;-83
2020/12/15 07:01:33;;;;;;;7.95;4.75;;;8.80;99.90;;;9.74;87.24;99897.28;4995372;28;20038;-80
2020/12/15 07:04:01;;;;;;;6.22;4.38;;;8.80;99.90;;;9.70;87.86;99904.78;4995178;28;20490;-81
2020/12/15 07:06:28;;;;;;;6.68;4.85;;;8.90;99.90;;;9.67;87.96;99906.34;4996238;28;20035;-82
2020/12/15 07:09:09;;;;;;;6.88;4.82;;;8.80;99.90;;;9.64;88.50;99912.66;4979577;28;20041;-81
2020/12/15 07:11:36;;;;;;;7.68;4.80;;;8.80;99.90;;;9.69;88.07;99909.56;4995427;28;20080;-80
2020/12/15 07:14:05;;;;;;;7.85;4.82;;;8.90;99.90;;;9.70;88.16;99916.75;4978064;28;20038;-83
2020/12/15 07:16:32;;;;;;;10.63;4.45;;;8.80;99.90;;;9.65;88.84;99922.63;4994266;28;20026;-80
2020/12/15 07:18:58;;;;;;;8.15;4.82;;;8.80;99.90;;;9.69;88.88;99915.16;4994564;28;20073;-82
2020/12/15 07:21:29;;;;;;;7.47;4.78;;;8.80;99.90;;;9.71;88.93;99918.38;4979070;28;20386;-82
2020/12/15 07:24:01;;;;;;;6.43;5.25;;;8.80;99.90;;;9.70;89.26;99919.53;4978582;28;20027;-80
2020/12/15 07:26:28;;;;;;;7.05;4.80;;;8.80;99.90;;;9.65;89.58;99931.00;4995900;28;20052;-82
2020/12/15 07:28:54;;;;;;;6.88;4.85;;;8.80;99.90;;;9.68;89.50;99932.25;4995114;28;20039;-82
2020/12/15 07:31:29;;;;;;;8.40;4.90;;;8.80;99.90;;;9.74;89.24;99933.53;4977603;28;20109;-81
2020/12/15 07:34:16;;;;;;;8.03;5.07;;;8.80;99.90;;;9.74;89.25;99939.94;4994498;28;20072;-80
2020/12/15 07:36:52;;;;;;;9.10;5.07;;;8.90;99.90;;;9.74;89.55;99934.34;4996125;28;20121;-81
2020/12/15 07:39:19;;;;;;;7.07;4.80;;;8.90;99.90;;;9.74;89.63;99930.75;4978135;28;20031;-82
2020/12/15 07:42:04;;;;;;;6.30;4.13;;;8.90;99.90;;;9.79;89.60;99939.63;4978337;28;20117;-80
2020/12/15 07:44:29;;;;;;;6.50;5.00;;;8.90;99.90;;;9.79;89.76;99939.63;4994932;28;20027;-82
2020/12/15 07:46:57;;;;;;;6.55;4.38;;;8.90;99.90;;;9.78;90.01;99937.22;4995856;28;20538;-82
2020/12/15 07:49:23;;;;;;;6.25;4.32;;;8.90;99.90;;;9.81;89.86;99937.28;4981241;28;20042;-82
2020/12/15 07:51:51;;;;;;;6.65;4.93;;;8.90;99.90;;;9.83;89.99;99931.31;4986456;28;20045;-82
2020/12/15 07:54:17;;;;;;;6.50;4.68;;;8.90;99.90;;;9.80;90.14;99935.66;4988679;28;20422;-82
2020/12/15 07:56:49;;;;;;;7.97;4.68;;;8.90;99.90;;;9.81;90.16;99940.06;4990846;28;20049;-81
2020/12/15 07:59:16;;;;;;;7.78;5.03;;;8.90;99.90;;;9.82;90.66;99946.47;4993811;28;20371;-83
2020/12/15 08:01:42;;;;;;;6.25;4.90;;;8.90;99.90;;;9.90;90.32;99943.44;4997539;28;20114;-82
2020/12/15 08:04:15;;;;;;;6.05;4.93;;;9.00;99.90;;;9.93;90.01;99953.84;4979807;28;20061;-81
2020/12/15 08:06:47;;;;;;;8.07;5.10;;;9.00;99.90;;;9.94;89.86;99947.09;4998554;28;20045;-83
2020/12/15 08:09:16;;;;;;;7.75;5.35;;;9.00;99.90;;;9.89;91.03;99955.75;4995785;28;20470;-84
2020/12/15 08:11:48;;;;;;;6.82;4.90;;;9.00;99.90;;;9.80;91.16;99951.59;4994221;28;20026;-82
2020/12/15 08:14:17;;;;;;;8.38;5.75;;;9.00;99.90;;;9.86;91.16;99956.50;4995803;28;20054;-85
2020/12/15 08:16:46;;;;;;;6.60;5.10;;;9.00;99.90;;;9.79;92.13;99955.56;4995088;28;20034;-82
2020/12/15 08:19:14;;;;;;;7.60;5.38;;;9.00;99.90;;;9.83;92.24;99962.81;4994566;28;20051;-82
2020/12/15 08:21:48;;;;;;;9.43;5.75;;;9.00;99.90;;;9.91;91.95;99974.91;4978889;28;20108;-83
2020/12/15 08:24:26;;;;;;;8.07;5.07;;;9.00;99.90;;;9.82;92.34;99968.78;5001830;28;20022;-79
2020/12/15 08:26:57;;;;;;;12.45;5.57;;;9.00;99.90;;;9.82;92.97;99975.16;5015752;28;20085;-81
2020/12/15 08:29:28;;;;;;;8.48;5.22;;;9.00;99.90;;;9.84;92.91;99983.94;5016098;28;20022;-85
2020/12/15 08:31:54;;;;;;;10.23;5.85;;;9.00;99.90;;;9.74;93.55;99978.97;5014220;28;20049;-80
2020/12/15 08:34:21;;;;;;;7.97;5.72;;;8.90;99.90;;;9.85;93.10;99980.00;4981937;28;20026;-82
2020/12/15 08:36:53;;;;;;;6.53;4.97;;;9.00;99.90;;;9.84;93.38;99978.38;4994461;28;20030;-84
2020/12/15 08:39:32;;;;;;;7.70;5.90;;;9.00;99.90;;;9.76;93.98;99984.97;5007395;28;20017;-82
2020/12/15 08:42:00;;;;;;;7.97;4.95;;;9.00;99.90;;;9.81;93.68;99987.47;4994016;28;20026;-80
2020/12/15 08:44:27;;;;;;;12.45;6.15;;;9.00;99.90;;;9.78;94.17;99979.03;5009465;28;20085;-82
2020/12/15 08:46:56;;;;;;;8.38;6.10;;;9.00;99.90;;;9.82;94.13;99986.31;4996719;28;20034;-79
2020/12/15 08:49:26;;;;;;;9.38;5.35;;;9.00;99.90;;;9.83;93.96;99984.31;4995188;28;20402;-80
2020/12/15 08:51:54;;;;;;;7.38;5.53;;;9.00;99.90;;;9.89;93.65;99986.44;4993999;28;20487;-81
2020/12/15 08:54:21;;;;;;;8.05;4.95;;;9.00;99.90;;;9.82;93.82;99989.09;4994514;28;20093;-81
2020/12/15 08:56:48;;;;;;;5.88;4.57;;;9.00;99.90;;;9.86;92.97;99986.34;4995065;28;20482;-83
2020/12/15 08:59:20;;;;;;;5.20;4.28;;;9.10;99.90;;;10.00;92.66;99990.25;5007119;28;20082;-83
2020/12/15 09:01:47;;;;;;;5.22;3.75;;;9.10;99.90;;;9.91;92.07;99986.06;5011476;28;20046;-83
2020/12/15 09:04:26;;;;;;;4.90;3.65;;;9.10;99.90;;;10.02;92.32;99989.84;4994819;28;20042;-83
2020/12/15 09:06:52;;;;;;;4.30;3.05;;;9.10;99.90;;;9.95;91.48;99996.09;4996155;28;20041;-82
2020/12/15 09:09:31;;;;;;;5.20;3.25;;;9.20;99.90;;;10.00;91.34;99993.03;4986140;28;20084;-83
2020/12/15 09:11:57;;;;;;;5.50;3.45;;;9.20;99.90;;;10.02;91.47;100009.38;4987831;28;20027;-80
2020/12/15 09:14:23;;;;;;;7.63;3.33;;;9.20;99.90;;;10.07;91.10;100000.72;4991317;28;20478;-81
2020/12/15 09:16:50;;;;;;;5.28;3.28;;;9.20;99.90;;;10.08;90.85;100003.13;5003313;28;20037;-84
2020/12/15 09:19:23;;;;;;;6.75;3.38;;;9.20;99.90;;;10.12;90.77;99999.59;5013700;28;20031;-84
2020/12/15 09:22:09;;;;;;;4.15;2.75;;;9.20;99.90;;;10.08;90.59;100013.50;5014425;28;20049;-82
2020/12/15 09:24:42;;;;;;;3.95;3.00;;;9.30;99.90;;;10.14;90.49;100011.25;5015502;28;20082;-79
2020/12/15 09:27:21;;;;;;;3.40;2.78;;;9.30;99.90;;;10.26;89.79;100011.06;5018377;28;20034;-81
2020/12/15 09:29:48;;;;;;;5.57;2.90;;;9.30;99.90;;;10.24;89.96;100010.63;5009256;28;20085;-85
2020/12/15 09:32:19;;;;;;;4.25;2.60;;;9.30;99.90;;;10.22;89.97;100013.78;4999385;28;20040;-84
2020/12/15 09:34:46;;;;;;;5.28;3.20;;;9.30;99.90;;;10.14;89.99;100019.63;4999242;28;20033;-81
2020/12/15 09:37:12;;;;;;;4.93;2.78;;;9.30;99.90;;;10.23;90.03;100022.97;4998759;28;20401;-83
2020/12/15 09:39:42;;;;;;;3.05;2.63;;;9.30;99.90;;;10.25;89.97;100017.81;4996622;28;20041;-84
2020/12/15 09:42:08;;;;;;;3.47;2.80;;;9.30;99.90;;;10.21;90.04;100014.16;4997906;28;20026;-83
2020/12/15 09:44:35;;;;;;;3.63;2.22;;;9.30;99.90;;;10.20;90.16;100015.34;4996841;28;20022;-82
2020/12/15 09:47:04;;;;;;;4.65;2.75;;;9.30;99.90;;;10.28;90.29;100019.84;4995419;28;20061;-84
2020/12/15 09:53:51;;;;;;;3.30;2.65;;;9.30;99.90;;;10.21;89.38;100019.75;5506894;23;20399;-83
2020/12/15 09:56:17;;;;;;;3.60;2.75;;;9.30;99.90;;;10.31;89.37;100016.31;4980770;28;20041;-82
2020/12/15 09:58:43;;;;;;;5.47;2.55;;;9.30;99.90;;;10.30;89.52;100020.31;4979563;28;20031;-85
2020/12/15 10:01:09;;;;;;;4.90;2.60;;;9.40;99.90;;;10.31;89.50;100016.31;4961148;28;20368;-86
2020/12/15 10:03:35;;;;;;;5.25;2.45;;;9.40;99.90;;;10.40;89.89;100023.28;4961746;28;20395;-85
2020/12/15 10:06:00;;;;;;;3.58;2.40;;;9.50;99.90;;;10.43;88.79;100024.53;4959063;28;20028;-83
2020/12/15 10:08:29;;;;;;;4.00;2.88;;;9.60;99.90;;;10.48;89.57;100024.22;4975417;28;20034;-83
2020/12/15 10:10:54;;;;;;;2.90;2.20;;;9.50;99.90;;;10.58;89.37;100032.78;4959433;29;20083;-84
2020/12/15 10:13:20;;;;;;;5.32;2.22;;;9.50;99.90;;;10.45;89.75;100030.53;4973663;28;20070;-84
2020/12/15 10:15:46;;;;;;;3.65;2.33;;;9.50;99.90;;;10.49;89.25;100029.44;4974614;28;20023;-82
2020/12/15 10:18:12;;;;;;;4.80;2.65;;;9.50;99.90;;;10.51;89.52;100037.44;4959785;29;20036;-81
2020/12/15 10:20:39;;;;;;;4.35;2.33;;;9.50;99.90;;;10.55;88.93;100035.50;4974278;28;20038;-84
2020/12/15 10:23:05;;;;;;;3.95;2.33;;;9.50;99.90;;;10.65;88.13;100034.88;4959458;28;20038;-86
2020/12/15 10:25:31;;;;;;;4.47;1.88;;;9.50;99.90;;;10.62;88.80;100030.06;4959322;29;20028;-85
2020/12/15 10:27:57;;;;;;;2.95;2.38;;;9.50;99.90;;;10.49;89.12;100023.03;4959815;29;20058;-86
2020/12/15 10:30:23;;;;;;;4.03;2.20;;;9.50;99.90;;;10.49;89.39;100031.41;4959987;29;20064;-85
2020/12/15 10:32:48;;;;;;;2.78;1.52;;;9.50;99.90;;;10.66;88.72;100025.31;4961813;28;20091;-84
2020/12/15 10:35:14;;;;;;;2.65;1.60;;;9.60;99.90;;;10.57;89.88;100028.38;4965262;29;20071;-85
2020/12/15 10:37:43;;;;;;;2.95;1.60;;;9.60;99.90;;;10.71;88.63;100033.41;4961417;29;20090;-83